Hauptseite
METAR-TAF:

METAR-TAF

Flughäfen :

Ferrara, Italien

Breite: 44-50N, Länge: 011-37E, Höhe: 10 m

Beobachtung

Neuester Wetterbericht von vor 35 Minuten, um 09:55 UTC
Wind 7 kt aus Nord/Nordost
Temperatur 4°C
Luftfeuchtigkeit 75%
Luftdruck 1017 hPa
Sichtweite 10 km oder mehr
Geschlossene Wolkendecke in der Höhe von 4000 ft

METAR: LIPF 190955Z 02007KT 9999 OVC040 04/00 Q1017 RMK OVC VIS MIN 9999

Zeit: 11:30 (10:30 UTC)


TAF: fehlend

Wetterbeobachtungen und Prognosen von mehr als 4000 Flughäfen (METAR und TAF Bericht).

Die verfügbaren Stationen werden durch gelbe und rote Markierungen auf der Karte dargestellt.

Führen Sie die Maus auf sie, um den Namen der Station zu sehen.

Darauf klicken, um die Beobachtung von Wetterbeobachtungen und Prognosen zu sehen.

Um die Karte zu ändern : klicken Sie auf den grünen Tasten mit einem schwarzen Kreuz Zum Vergrößern, auf den grünen Button mit einem Gedankenstrich zu verkleinern, oder auf die grünen Pfeile für benachbarte Karten.


METAR-TAF: